MDST/STI METAR and TAF weather

Enter ICAO airport designator
Station Type Date Time Source
MDST METAR 2021/04/18 02:00 UTC NOAA

MDST 180200Z 09006KT 9999 FEW016 26/23 Q1016


Station Type Date Time Source
MDST Decoded METAR 2021/04/18 02:00 UTC NOAA

Santiago, Dominican Republic (MDST) 19-27N 070-42W
Apr 17, 2021 - 10:00 PM EDT / 2021.04.18 0200 UTC
Wind: from the E (090 degrees) at 7 MPH (6 KT):0
Visibility: greater than 7 mile(s):0
Sky conditions: mostly clear
Temperature: 78 F (26 C)
Dew Point: 73 F (23 C)
Relative Humidity: 83%
Pressure (altimeter): 30.00 in. Hg (1016 hPa)
ob: MDST 180200Z 09006KT 9999 FEW016 26/23 Q1016
cycle: 2

Station Type Date Time Source
MDST TAF 2021/04/17 18:36 UTC NOAA

TAF MDST 171600Z 1718/1818 11012KT 9999 FEW022 PROB30 1722/1800 8000 -RA SCT016 BKN070
BECMG 1802/1805 VRB04KT

Example: see airport list